Mayville, ND (58257)

12:30 PM CDT on July 24, 2016 (GMT -0500)
Jeff and Kari's | | Change Station

Elev 860 ft 47.57 °N, 96.93 °W | Updated 1 minute ago

Scattered Clouds
Scattered Clouds
76.8 °F
Feels Like 79 °F
N
10.0
Wind Variable Wind from West
Gusts 13.0 mph

Today
High -- | Low -- °F
--% Chance of Precip.
Yesterday
High -- | Low -- °F
Precip. -- in
Pressure 29.86 in
Visibility 10.0 miles
Clouds Few 2800 ft
Scattered Clouds 7000 ft
Scattered Clouds 18000 ft
Heat Index 79 °F
Dew Point 66 °F
Humidity 70%
Rainfall 0.00 in
Snow Depth Not available.
5:58 AM 9:12 PM
Waning Gibbous, 74% visible
METAR KGFK 241653Z 27013G19KT 10SM FEW028 SCT070 SCT180 25/18 A2987 RMK AO2 SLP112 T02500178
Pressure 29.86 in
Visibility 10.0 miles
Clouds Few 2800 ft
Scattered Clouds 7000 ft
Scattered Clouds 18000 ft
Heat Index 79 °F
Dew Point 66 °F
Humidity 70%
Rainfall 0.00 in
Snow Depth Not available.
5:58 AM 9:12 PM
Waning Gibbous, 74% visible
METAR KGFK 241653Z 27013G19KT 10SM FEW028 SCT070 SCT180 25/18 A2987 RMK AO2 SLP112 T02500178

10-Day Weather Forecast

Almanac

Astronomy

Jul. 24, 2016 Rise Set
Actual Time
Civil Twilight
Nautical Twilight
Astronomical Twilight
Moon
Length of Visible Light
Length of Day
Tomorrow will be .
, % of the Moon is Illuminated

Today's Extremes

State Highs State Lows

Community

WunderPhotos

Upload Photos

1,927,127 photos uploaded!

WunderBlog® & News

Nearby

Air Quality

  Air Quality AQ Index Pollutant
Not available.

Snow Depth

Station Depth Elevation

Earthquake Activity

City Distance Mag. Time & Date
Minimum magnitude displayed is 2.5.

Coastal Water Temperatures

Place Temperature

Stations

Nearby Weather Stations

Station Location Temp. Windchill Dew Point Humidity Wind Precip. Elev Updated Type
                   

Watches & Warnings

There are currently no watches in effect.